Observations for Trim Patrick St
| Time | AQI | Temp °C | Hum % | Pres Pa | CO μg/m³ | H₂S μg/m³ | NO μg/m³ | NO₂ μg/m³ | O₃ μg/m³ | SO₂ μg/m³ | PM1 μg/m³ | PM2.5 μg/m³ | PM10 μg/m³ |
|---|---|---|---|---|---|---|---|---|---|---|---|---|---|
| Saturday 1 August 2026 | |||||||||||||
| 18:59 | 3 | 29.8 | 31 | 69,204 | 0 | 0 | 1.23 | 22.2 | 93.77 | 13.77 | 3.71 | 9.99 | 10.99 |
| 18:58 | 3 | 29.8 | 31 | 69,193 | 0 | 0 | 1.18 | 13.03 | 76.9 | 12.24 | 2.86 | 10.04 | 11.04 |
| 18:57 | 3 | 29.7 | 32 | 69,181 | 0 | 0 | 1.28 | 28.78 | 93.8 | 12.64 | 4.57 | 11.54 | 12.69 |
| 18:56 | 3 | 29.6 | 32 | 69,191 | 0 | 0 | 1.23 | 22.72 | 78.46 | 11.55 | 10.57 | 20.39 | 22.43 |
| 18:55 | 3 | 29.5 | 32 | 69,204 | 0 | 0 | 1.24 | 16.26 | 76.95 | 12.8 | 13.14 | 24.38 | 26.81 |
| 18:54 | 3 | 29.4 | 32 | 69,195 | 0 | 4.88 | 1.23 | 26.7 | 88.57 | 12.84 | 13.14 | 22.77 | 25.05 |
| 18:53 | 3 | 29.3 | 32 | 69,177 | 0 | 2.46 | 1.29 | 32.5 | 88.09 | 12.63 | 11.43 | 21.93 | 24.13 |
| 18:52 | 3 | 29.3 | 34 | 69,191 | 0 | 0.18 | 1.34 | 20.07 | 96.75 | 14.19 | 11.43 | 20.23 | 22.25 |
| 18:51 | 3 | 29.2 | 33 | 69,175 | 0 | 0 | 1.31 | 22.07 | 86.41 | 12.82 | 11.43 | 21.91 | 24.1 |
| 18:50 | 3 | 29.2 | 33 | 69,161 | 0 | 0 | 1.33 | 16.58 | 82.1 | 12.26 | 12.29 | 21.86 | 22.32 |
| 18:49 | 3 | 29.1 | 33 | 69,139 | 0 | 0 | 1.33 | 19.54 | 84.24 | 12.13 | 14 | 24.23 | 26.65 |
| 18:48 | 3 | 29 | 33 | 69,143 | 0 | 0 | 1.31 | 24.67 | 87.81 | 11.69 | 13.14 | 22.65 | 24.92 |
| 18:47 | 3 | 29 | 32 | 69,147 | 0 | 0 | 1.28 | 16.43 | 76.81 | 13.24 | 13.14 | 25.17 | 25.58 |
| 18:46 | 3 | 28.9 | 33 | 69,155 | 0 | 0 | 1.29 | 19.62 | 83.76 | 11.73 | 11.43 | 22.71 | 24.98 |
| 18:45 | 3 | 28.8 | 33 | 69,138 | 0 | 0 | 1.28 | 29.09 | 83.5 | 11.65 | 9.71 | 22.69 | 23.4 |
| 18:44 | 3 | 28.8 | 33 | 69,141 | 0 | 0 | 1.29 | 18.69 | 82.19 | 12.22 | 11.43 | 21.91 | 24.1 |
| 18:43 | 3 | 28.8 | 34 | 69,149 | 0 | 0 | 1.31 | 19.5 | 94.38 | 13.6 | 11.43 | 19.42 | 21.36 |
| 18:42 | 3 | 28.8 | 32 | 69,128 | 0 | 0 | 1.27 | 14.8 | 77.67 | 12.04 | 9.71 | 18.78 | 20.65 |
| 18:41 | 3 | 28.8 | 32 | 69,128 | 0 | 0 | 1.25 | 20 | 90.66 | 12.15 | 8 | 17.14 | 18.85 |
| 18:36 | 3 | 28.8 | 33 | 69,130 | 0 | 0 | 1.32 | 16.76 | 76.68 | 11.67 | 8.86 | 17.85 | 19.63 |